NCAR-RAP Real-Time Weather Data

Output produced by METARs form (21 August 2017  04:38 UTC)
found at http://weather.rap.ucar.edu/surface/
 
Conditions at: KTPA observed 21 August 2017  03:53 UTC
Temperature: 28.3°C (83°F)
Dewpoint: 23.9°C (75°F) [RH = 77%]
Pressure (altimeter): 30.12 inches Hg (1020.1 mb)
[Sea-level pressure: 1019.7 mb]
Winds: from the ESE (120 degrees) at 7 MPH (6 knots; 3.1 m/s)
Visibility: 10 or more miles (16+ km)
Ceiling: 14000 feet AGL
Clouds: few clouds at 2000 feet AGL
broken clouds at 14000 feet AGL
overcast cloud deck at 20000 feet AGL
Present Weather: no significant weather observed at this time
KTPA 210353Z 12006KT 10SM FEW020 BKN140 OVC200 28/24 A3012 RMK AO2 SLP197 T02830239

Conditions at: KTPA observed 21 August 2017  02:53 UTC
Temperature: 28.3°C (83°F)
Dewpoint: 23.3°C (74°F) [RH = 74%]
Pressure (altimeter): 30.11 inches Hg (1019.7 mb)
[Sea-level pressure: 1019.5 mb]
Winds: from the ESE (120 degrees) at 5 MPH (4 knots; 2.1 m/s)
Visibility: 10 or more miles (16+ km)
Ceiling: 16000 feet AGL
Clouds: few clouds at 3000 feet AGL
broken clouds at 16000 feet AGL
Present Weather: no significant weather observed at this time
KTPA 210253Z 12004KT 10SM FEW030 BKN160 28/23 A3011 RMK AO2 SLP195 FRQ LTGIC DSNT NW CB DSNT NW T02830233 53023

Conditions at: KTPA observed 21 August 2017  01:53 UTC
Temperature: 28.3°C (83°F)
Dewpoint: 24.4°C (76°F) [RH = 79%]
Pressure (altimeter): 30.08 inches Hg (1018.7 mb)
[Sea-level pressure: 1018.6 mb]
Winds: from the ESE (110 degrees) at 6 MPH (5 knots; 2.6 m/s)
Visibility: 10 or more miles (16+ km)
Ceiling: 16000 feet AGL
Clouds: broken clouds at 16000 feet AGL
broken clouds at 22000 feet AGL
Present Weather: no significant weather observed at this time
KTPA 210153Z 11005KT 10SM BKN160 BKN220 28/24 A3008 RMK AO2 SLP186 T02830244

Conditions at: KTPA observed 21 August 2017  00:53 UTC
Temperature: 28.3°C (83°F)
Dewpoint: 23.9°C (75°F) [RH = 77%]
Pressure (altimeter): 30.06 inches Hg (1018.0 mb)
[Sea-level pressure: 1017.9 mb]
Winds: from the ESE (110 degrees) at 7 MPH (6 knots; 3.1 m/s)
Visibility: 10 or more miles (16+ km)
Ceiling: 15000 feet AGL
Clouds: broken clouds at 15000 feet AGL
overcast cloud deck at 22000 feet AGL
Present Weather: no significant weather observed at this time
KTPA 210053Z 11006KT 10SM BKN150 OVC220 28/24 A3006 RMK AO2 SLP179 T02830239

Conditions at: KTPA observed 20 August 2017  23:53 UTC
Temperature: 28.9°C (84°F)
Dewpoint: 23.3°C (74°F) [RH = 72%]
Pressure (altimeter): 30.04 inches Hg (1017.4 mb)
[Sea-level pressure: 1017.1 mb]
Winds: from the ESE (110 degrees) at 10 MPH (9 knots; 4.7 m/s)
gusting to 18 MPH (16 knots; 8.3 m/s)
Visibility: 10 or more miles (16+ km)
Ceiling: 19000 feet AGL
Clouds: few clouds at 3000 feet AGL
broken clouds at 19000 feet AGL
overcast cloud deck at 25000 feet AGL
Present Weather: no significant weather observed at this time
KTPA 202353Z 11009G16KT 10SM FEW030 BKN190 OVC250 29/23 A3004 RMK AO2 SLP171 T02890233 10344 20289 53010

Conditions at: KTPA observed 20 August 2017  22:53 UTC
Temperature: 30.6°C (87°F)
Dewpoint: 21.1°C (70°F) [RH = 57%]
Pressure (altimeter): 30.03 inches Hg (1017.0 mb)
[Sea-level pressure: 1016.7 mb]
Winds: from the ESE (110 degrees) at 12 MPH (10 knots; 5.2 m/s)
Visibility: 10 or more miles (16+ km)
Ceiling: 19000 feet AGL
Clouds: scattered clouds at 3000 feet AGL
scattered clouds at 10000 feet AGL
overcast cloud deck at 19000 feet AGL
Present Weather: no significant weather observed at this time
KTPA 202253Z 11010KT 10SM SCT030 SCT100 OVC190 31/21 A3003 RMK AO2 LTG DSNT W AND NW SLP167 CB DSNT W SHRA DSNT W T03060211

Conditions at: KTPA observed 20 August 2017  21:53 UTC
Temperature: 33.3°C (92°F)
Dewpoint: 22.2°C (72°F) [RH = 52%]
Pressure (altimeter): 30.00 inches Hg (1016.0 mb)
[Sea-level pressure: 1015.9 mb]
Winds: from the E (80 degrees) at 9 MPH (8 knots; 4.2 m/s)
Visibility: 10 or more miles (16+ km)
Ceiling: 13000 feet AGL
Clouds: few clouds at 3500 feet AGL
broken clouds at 13000 feet AGL
broken clouds at 20000 feet AGL
Present Weather: no significant weather observed at this time
KTPA 202153Z 08008KT 10SM FEW035 BKN130 BKN200 33/22 A3000 RMK AO2 LTG DSNT W AND NW SLP159 CB DSNT E AND NW SHRA DSNT NE-SE T03330222

Conditions at: KTPA observed 20 August 2017  20:53 UTC
Temperature: 31.7°C (89°F)
Dewpoint: 21.7°C (71°F) [RH = 56%]
Pressure (altimeter): 30.01 inches Hg (1016.3 mb)
[Sea-level pressure: 1016.1 mb]
Winds: from the N (350 degrees) at 5 MPH (4 knots; 2.1 m/s)
Visibility: 10 or more miles (16+ km)
Ceiling: 18000 feet AGL
Clouds: few clouds at 2000 feet AGL
scattered clouds at 4000 feet AGL
broken clouds at 18000 feet AGL
broken clouds at 25000 feet AGL
Present Weather: no significant weather observed at this time
KTPA 202053Z COR 35004KT 10SM FEW020 SCT040 BKN180 BKN250 32/22 A3001 RMK AO2 LTG DSNT E AND S AND W TSB29E46 SLP161 OCNL LTGICCG DSNT S AND NW CB DSNT S AND NW SHRA DSNT S AND NW T03170217 56004

Conditions at: KTPA observed 20 August 2017  20:34 UTC
Temperature: 33.3°C (92°F)
Dewpoint: 22.2°C (72°F) [RH = 52%]
Pressure (altimeter): 30.01 inches Hg (1016.3 mb)
Winds: from the NE (50 degrees) at 6 MPH (5 knots; 2.6 m/s)
Visibility: 10 or more miles (16+ km)
Ceiling: 18000 feet AGL
Clouds: few clouds at 2000 feet AGL
scattered clouds at 4000 feet AGL
broken clouds at 18000 feet AGL
broken clouds at 25000 feet AGL
Present Weather: TS  (thunderstorm)
KTPA 202034Z COR 05005KT 10SM TS FEW020 SCT040 BKN180 BKN250 33/22 A3001 RMK AO2 LTG DSNT ALQDS TSB29 OCNL LTGICCG DSNT S AND NW CB DSNT S AND NW SHRA DSNT S AND NW T03330222

Conditions at: KTPA observed 20 August 2017  19:53 UTC
Temperature: 33.9°C (93°F)
Dewpoint: 20.6°C (69°F) [RH = 46%]
Pressure (altimeter): 30.01 inches Hg (1016.3 mb)
[Sea-level pressure: 1016.2 mb]
Winds: from the ENE (60 degrees) at 7 MPH (6 knots; 3.1 m/s)
Visibility: 10 or more miles (16+ km)
Ceiling: 18000 feet AGL
Clouds: scattered clouds at 4000 feet AGL
scattered clouds at 11000 feet AGL
overcast cloud deck at 18000 feet AGL
Present Weather: no significant weather observed at this time
KTPA 201953Z 06006KT 10SM SCT040 SCT110 OVC180 34/21 A3001 RMK AO2 LTG DSNT W SLP162 T03390206

Conditions at: KTPA observed 20 August 2017  18:53 UTC
Temperature: 34.4°C (94°F)
Dewpoint: 20.6°C (69°F) [RH = 45%]
Pressure (altimeter): 30.02 inches Hg (1016.7 mb)
[Sea-level pressure: 1016.5 mb]
Winds: variable direction winds at 6 MPH (5 knots; 2.6 m/s)
Visibility: 10 or more miles (16+ km)
Ceiling: 28000 feet AGL
Clouds: few clouds at 5000 feet AGL
overcast cloud deck at 28000 feet AGL
Present Weather: no significant weather observed at this time
KTPA 201853Z VRB05KT 10SM FEW050TCU OVC280 34/21 A3002 RMK AO2 SLP165 TCU W-NW T03440206

Conditions at: KTPA observed 20 August 2017  17:53 UTC
Temperature: 33.9°C (93°F)
Dewpoint: 20.6°C (69°F) [RH = 46%]
Pressure (altimeter): 30.03 inches Hg (1017.0 mb)
[Sea-level pressure: 1016.9 mb]
Winds: from the NNE (30 degrees) at 8 MPH (7 knots; 3.6 m/s)
Visibility: 10 or more miles (16+ km)
Ceiling: 28000 feet AGL
Clouds: few clouds at 5000 feet AGL
scattered clouds at 17000 feet AGL
overcast cloud deck at 28000 feet AGL
Present Weather: no significant weather observed at this time
KTPA 201753Z 03007KT 10SM FEW050TCU SCT170 OVC280 34/21 A3003 RMK AO2 SLP169 TCU W-N T03390206 10344 20278 58004

Conditions at: KTPA observed 20 August 2017  16:53 UTC
Temperature: 34.4°C (94°F)
Dewpoint: 22.8°C (73°F) [RH = 51%]
Pressure (altimeter): 30.05 inches Hg (1017.7 mb)
[Sea-level pressure: 1017.5 mb]
Winds: variable direction winds at 3 MPH (3 knots; 1.6 m/s)
Visibility: 10 or more miles (16+ km)
Ceiling: 16000 feet AGL
Clouds: scattered clouds at 4500 feet AGL
broken clouds at 16000 feet AGL
broken clouds at 30000 feet AGL
Present Weather: no significant weather observed at this time
KTPA 201653Z VRB03KT 10SM SCT045TCU BKN160 BKN300 34/23 A3005 RMK AO2 SLP175 TCU W-NW T03440228

Conditions at: KTPA observed 20 August 2017  15:53 UTC
Temperature: 32.8°C (91°F)
Dewpoint: 23.3°C (74°F) [RH = 58%]
Pressure (altimeter): 30.06 inches Hg (1018.0 mb)
[Sea-level pressure: 1017.8 mb]
Winds: variable direction winds at 3 MPH (3 knots; 1.6 m/s)
Visibility: 10 or more miles (16+ km)
Ceiling: 30000 feet AGL
Clouds: few clouds at 3600 feet AGL
broken clouds at 30000 feet AGL
Present Weather: no significant weather observed at this time
KTPA 201553Z VRB03KT 10SM FEW036 BKN300 33/23 A3006 RMK AO2 SLP178 CU BLDG SW-N T03280233

Conditions at: KTPA observed 20 August 2017  14:53 UTC
Temperature: 31.7°C (89°F)
Dewpoint: 23.9°C (75°F) [RH = 63%]
Pressure (altimeter): 30.04 inches Hg (1017.4 mb)
[Sea-level pressure: 1017.3 mb]
Winds: calm
Visibility: 10 or more miles (16+ km)
Ceiling: 32000 feet AGL
Clouds: few clouds at 3000 feet AGL
broken clouds at 32000 feet AGL
Present Weather:
SOME DATA ABOVE MAY BE INACCURATE!!!
"$" is an indication the sensor requires maintenance
KTPA 201453Z 00000KT 10SM FEW030 BKN320 32/24 A3004 RMK AO2 SLP173 T03170239 51006 $

Conditions at: KTPA observed 20 August 2017  13:53 UTC
Temperature: 30.6°C (87°F)
Dewpoint: 24.4°C (76°F) [RH = 70%]
Pressure (altimeter): 30.04 inches Hg (1017.4 mb)
[Sea-level pressure: 1017.2 mb]
Winds: from the SE (140 degrees) at 7 MPH (6 knots; 3.1 m/s)
Visibility: 10 or more miles (16+ km)
Ceiling: at least 12,000 feet AGL
Clouds: scattered clouds at 34000 feet AGL
Present Weather:
SOME DATA ABOVE MAY BE INACCURATE!!!
"$" is an indication the sensor requires maintenance
KTPA 201353Z 14006KT 10SM SCT340 31/24 A3004 RMK AO2 SLP172 T03060244 $

Conditions at: KTPA observed 20 August 2017  12:53 UTC
Temperature: 28.9°C (84°F)
Dewpoint: 24.4°C (76°F) [RH = 77%]
Pressure (altimeter): 30.03 inches Hg (1017.0 mb)
[Sea-level pressure: 1016.9 mb]
Winds: from the ESE (120 degrees) at 5 MPH (4 knots; 2.1 m/s)
Visibility: 10 or more miles (16+ km)
Ceiling: 30000 feet AGL
Clouds: few clouds at 1500 feet AGL
broken clouds at 30000 feet AGL
Present Weather:
SOME DATA ABOVE MAY BE INACCURATE!!!
"$" is an indication the sensor requires maintenance
KTPA 201253Z 12004KT 10SM FEW015 BKN300 29/24 A3003 RMK AO2 SLP169 CB DSNT SW-W TCU DSNT SW-W T02890244 $

Conditions at: KTPA observed 20 August 2017  11:53 UTC
Temperature: 27.8°C (82°F)
Dewpoint: 24.4°C (76°F) [RH = 82%]
Pressure (altimeter): 30.03 inches Hg (1017.0 mb)
[Sea-level pressure: 1016.7 mb]
Winds: calm
Visibility: 10 or more miles (16+ km)
Ceiling: 30000 feet AGL
Clouds: few clouds at 1500 feet AGL
broken clouds at 30000 feet AGL
Present Weather:
SOME DATA ABOVE MAY BE INACCURATE!!!
"$" is an indication the sensor requires maintenance
KTPA 201153Z 00000KT 10SM FEW015 BKN300 28/24 A3003 RMK AO2 SLP167 TCU DSNT SW-W T02780244 10283 20267 53014 $

Conditions at: KTPA observed 20 August 2017  10:53 UTC
Temperature: 27.2°C (81°F)
Dewpoint: 23.9°C (75°F) [RH = 82%]
Pressure (altimeter): 30.01 inches Hg (1016.3 mb)
[Sea-level pressure: 1016.1 mb]
Winds: calm
Visibility: 10 or more miles (16+ km)
Ceiling: at least 12,000 feet AGL
Clouds: few clouds at 1500 feet AGL
few clouds at 30000 feet AGL
Present Weather:
SOME DATA ABOVE MAY BE INACCURATE!!!
"$" is an indication the sensor requires maintenance
KTPA 201053Z 00000KT 10SM FEW015TCU FEW300 27/24 A3001 RMK AO2 SLP161 TCU NW T02720239 $

Conditions at: KTPA observed 20 August 2017  09:53 UTC
Temperature: 27.2°C (81°F)
Dewpoint: 23.9°C (75°F) [RH = 82%]
Pressure (altimeter): 29.99 inches Hg (1015.7 mb)
[Sea-level pressure: 1015.6 mb]
Winds: calm
Visibility: 10 or more miles (16+ km)
Ceiling: at least 12,000 feet AGL
Clouds: sky clear below 12,000 feet AGL
Present Weather:
SOME DATA ABOVE MAY BE INACCURATE!!!
"$" is an indication the sensor requires maintenance
KTPA 200953Z 00000KT 10SM CLR 27/24 A2999 RMK AO2 SLP156 T02720239 $

Conditions at: KTPA observed 20 August 2017  08:53 UTC
Temperature: 27.2°C (81°F)
Dewpoint: 23.9°C (75°F) [RH = 82%]
Pressure (altimeter): 29.98 inches Hg (1015.3 mb)
[Sea-level pressure: 1015.2 mb]
Winds: calm
Visibility: 10 or more miles (16+ km)
Ceiling: at least 12,000 feet AGL
Clouds: sky clear below 12,000 feet AGL
Present Weather:
SOME DATA ABOVE MAY BE INACCURATE!!!
"$" is an indication the sensor requires maintenance
KTPA 200853Z 00000KT 10SM CLR 27/24 A2998 RMK AO2 SLP152 T02720239 55004 $

Conditions at: KTPA observed 20 August 2017  07:53 UTC
Temperature: 28.3°C (83°F)
Dewpoint: 23.9°C (75°F) [RH = 77%]
Pressure (altimeter): 29.97 inches Hg (1015.0 mb)
[Sea-level pressure: 1014.9 mb]
Winds: calm
Visibility: 10 or more miles (16+ km)
Ceiling: at least 12,000 feet AGL
Clouds: few clouds at 25000 feet AGL
Present Weather:
SOME DATA ABOVE MAY BE INACCURATE!!!
"$" is an indication the sensor requires maintenance
KTPA 200753Z 00000KT 10SM FEW250 28/24 A2997 RMK AO2 SLP149 T02830239 $

Conditions at: KTPA observed 20 August 2017  06:53 UTC
Temperature: 27.8°C (82°F)
Dewpoint: 23.3°C (74°F) [RH = 77%]
Pressure (altimeter): 29.98 inches Hg (1015.3 mb)
[Sea-level pressure: 1015.2 mb]
Winds: from the ENE (60 degrees) at 5 MPH (4 knots; 2.1 m/s)
Visibility: 10 or more miles (16+ km)
Ceiling: at least 12,000 feet AGL
Clouds: few clouds at 9000 feet AGL
scattered clouds at 25000 feet AGL
Present Weather:
SOME DATA ABOVE MAY BE INACCURATE!!!
"$" is an indication the sensor requires maintenance
KTPA 200653Z 06004KT 10SM FEW090 SCT250 28/23 A2998 RMK AO2 SLP152 T02780233 $

Conditions at: KTPA observed 20 August 2017  05:53 UTC
Temperature: 28.3°C (83°F)
Dewpoint: 23.3°C (74°F) [RH = 74%]
Pressure (altimeter): 29.99 inches Hg (1015.7 mb)
[Sea-level pressure: 1015.6 mb]
Winds: from the ESE (120 degrees) at 5 MPH (4 knots; 2.1 m/s)
Visibility: 10 or more miles (16+ km)
Ceiling: at least 12,000 feet AGL
Clouds: few clouds at 4500 feet AGL
scattered clouds at 14000 feet AGL
scattered clouds at 25000 feet AGL
Present Weather:
SOME DATA ABOVE MAY BE INACCURATE!!!
"$" is an indication the sensor requires maintenance
KTPA 200553Z 12004KT 10SM FEW045 SCT140 SCT250 28/23 A2999 RMK AO2 SLP156 T02830233 10306 20283 58003 $

Conditions at: KTPA observed 20 August 2017  04:53 UTC
Temperature: 28.9°C (84°F)
Dewpoint: 23.9°C (75°F) [RH = 74%]
Pressure (altimeter): 30.01 inches Hg (1016.3 mb)
[Sea-level pressure: 1016.0 mb]
Winds: from the ENE (70 degrees) at 5 MPH (4 knots; 2.1 m/s)
Visibility: 10 or more miles (16+ km)
Ceiling: at least 12,000 feet AGL
Clouds: scattered clouds at 4500 feet AGL
scattered clouds at 25000 feet AGL
Present Weather:
SOME DATA ABOVE MAY BE INACCURATE!!!
"$" is an indication the sensor requires maintenance
KTPA 200453Z 07004KT 10SM SCT045 SCT250 29/24 A3001 RMK AO2 SLP160 T02890239 403330250 $